createdAt,value
2022-08-04T00:01:03.399Z,99.90
2022-08-04T00:03:42.356Z,99.90
2022-08-04T00:06:19.905Z,99.90
2022-08-04T00:08:53.084Z,99.90
2022-08-04T00:11:31.231Z,99.90
2022-08-04T00:14:04.701Z,99.90
2022-08-04T00:16:38.742Z,99.90
2022-08-04T00:19:13.602Z,99.90
2022-08-04T00:21:49.562Z,99.90
2022-08-04T00:24:21.934Z,99.90
2022-08-04T00:26:53.463Z,99.90
2022-08-04T00:29:23.444Z,99.90
2022-08-04T00:31:55.108Z,99.90
2022-08-04T00:34:28.142Z,99.90
2022-08-04T00:36:58.486Z,99.90
2022-08-04T00:39:29.325Z,99.90
2022-08-04T00:42:23.289Z,99.90
2022-08-04T00:45:12.187Z,99.90
2022-08-04T00:47:56.062Z,99.90
2022-08-04T00:50:35.036Z,99.90
2022-08-04T00:53:09.681Z,99.90
2022-08-04T00:56:14.131Z,99.90
2022-08-04T00:59:04.732Z,99.90
2022-08-04T01:02:01.880Z,99.90
2022-08-04T01:04:44.040Z,99.90
2022-08-04T01:07:33.770Z,99.90
2022-08-04T01:10:11.261Z,99.90
2022-08-04T01:13:15.338Z,99.90
2022-08-04T01:16:00.404Z,99.90
2022-08-04T01:18:37.077Z,99.90
2022-08-04T01:21:27.814Z,99.90
2022-08-04T01:24:32.998Z,99.90
2022-08-04T01:27:07.165Z,99.90
2022-08-04T01:29:46.824Z,99.90
2022-08-04T01:32:25.870Z,99.90
2022-08-04T01:35:09.390Z,99.90
2022-08-04T01:37:55.939Z,99.90
2022-08-04T01:40:27.695Z,99.90
2022-08-04T01:42:59.793Z,99.90
2022-08-04T01:45:31.589Z,99.90
2022-08-04T01:48:01.869Z,99.90
2022-08-04T01:50:36.553Z,99.90
2022-08-04T01:53:06.097Z,99.90
2022-08-04T01:55:55.120Z,99.90
2022-08-04T01:58:25.925Z,99.90
2022-08-04T02:01:04.843Z,99.90
2022-08-04T02:04:19.517Z,99.90
2022-08-04T02:06:33.461Z,99.90
2022-08-04T02:09:13.654Z,99.90
2022-08-04T02:11:45.701Z,99.90
2022-08-04T02:14:38.528Z,99.90
2022-08-04T02:17:14.283Z,99.90
2022-08-04T02:19:59.633Z,99.90
2022-08-04T02:22:30.124Z,99.90
2022-08-04T02:25:04.548Z,99.90
2022-08-04T02:28:00.066Z,99.90
2022-08-04T02:30:35.546Z,99.90
2022-08-04T02:33:08.675Z,99.90
2022-08-04T02:35:39.919Z,99.90
2022-08-04T02:38:18.477Z,99.90
2022-08-04T02:40:59.125Z,99.90
2022-08-04T02:43:50.814Z,99.90
2022-08-04T02:46:20.792Z,99.90
2022-08-04T02:48:53.059Z,99.90
2022-08-04T02:51:25.159Z,99.90
2022-08-04T02:53:57.105Z,99.90
2022-08-04T02:56:29.101Z,99.90
2022-08-04T02:59:01.543Z,99.90
2022-08-04T03:01:30.680Z,99.90
2022-08-04T03:04:24.748Z,99.90
2022-08-04T03:07:16.743Z,99.90
2022-08-04T03:10:07.822Z,99.90
2022-08-04T03:13:01.522Z,99.90
2022-08-04T03:15:59.707Z,99.90
2022-08-04T03:19:24.004Z,99.90
2022-08-04T03:22:29.144Z,99.90
2022-08-04T03:25:27.234Z,99.90
2022-08-04T03:28:19.230Z,99.90
2022-08-04T03:31:05.089Z,99.90
2022-08-04T03:33:49.461Z,99.90
2022-08-04T03:37:04.279Z,99.90
2022-08-04T03:40:18.130Z,99.90
2022-08-04T03:43:56.837Z,99.90
2022-08-04T03:46:59.320Z,99.90
2022-08-04T03:50:00.778Z,99.90
2022-08-04T03:53:11.871Z,99.90
2022-08-04T03:56:15.984Z,99.90
2022-08-04T03:59:10.099Z,99.90
2022-08-04T04:02:02.325Z,99.90
2022-08-04T04:04:59.579Z,99.90
2022-08-04T04:08:18.673Z,99.90
2022-08-04T04:11:22.636Z,99.90
2022-08-04T04:14:22.873Z,99.90
2022-08-04T04:17:06.454Z,99.90
2022-08-04T04:19:58.566Z,99.90
2022-08-04T04:22:51.239Z,99.90
2022-08-04T04:25:32.055Z,99.90
2022-08-04T04:28:43.786Z,99.90
2022-08-04T04:31:34.565Z,98.90
2022-08-04T04:34:14.266Z,99.50
2022-08-04T04:36:53.807Z,95.90
2022-08-04T04:39:33.218Z,96.80
2022-08-04T04:42:12.622Z,94.70
2022-08-04T04:45:06.914Z,93.00
2022-08-04T04:48:08.375Z,90.00
2022-08-04T04:51:00.232Z,90.60
2022-08-04T04:53:34.437Z,90.70
2022-08-04T04:56:13.441Z,90.40
2022-08-04T04:58:43.974Z,89.20
2022-08-04T05:01:34.136Z,87.00
2022-08-04T05:04:24.838Z,85.20
2022-08-04T05:07:11.419Z,87.40
2022-08-04T05:09:54.998Z,87.70
2022-08-04T05:14:35.505Z,84.70
2022-08-04T05:15:53.835Z,86.60
2022-08-04T05:18:26.201Z,84.00
2022-08-04T05:21:00.212Z,82.70
2022-08-04T05:23:32.769Z,82.30
2022-08-04T05:26:05.370Z,81.70
2022-08-04T05:28:37.884Z,82.50
2022-08-04T05:31:14.256Z,83.40
2022-08-04T05:33:51.315Z,82.50
2022-08-04T05:36:40.134Z,82.70
2022-08-04T05:39:15.966Z,81.60
2022-08-04T05:41:48.034Z,79.80
2022-08-04T05:44:25.931Z,80.60
2022-08-04T05:46:59.189Z,85.20
2022-08-04T05:49:29.745Z,89.50
2022-08-04T05:52:02.841Z,90.50
2022-08-04T05:54:33.549Z,90.60
2022-08-04T05:57:04.883Z,91.00
2022-08-04T05:59:35.620Z,90.90
2022-08-04T06:02:07.325Z,90.60
2022-08-04T06:04:39.613Z,88.70
2022-08-04T06:07:09.060Z,89.40
2022-08-04T06:09:38.273Z,91.20
2022-08-04T06:12:12.296Z,90.90
2022-08-04T06:14:44.758Z,91.20
2022-08-04T06:19:56.105Z,89.50
2022-08-04T06:20:20.007Z,88.50
2022-08-04T06:22:55.274Z,85.90
2022-08-04T06:25:29.451Z,88.80
2022-08-04T06:27:59.531Z,87.00
2022-08-04T06:30:29.445Z,87.10
2022-08-04T06:33:04.967Z,87.80
2022-08-04T06:35:35.336Z,86.10
2022-08-04T06:38:05.734Z,85.00
2022-08-04T06:40:35.970Z,86.80
2022-08-04T06:43:07.671Z,87.90
2022-08-04T06:45:41.329Z,88.80
2022-08-04T06:48:16.253Z,87.80
2022-08-04T06:51:32.185Z,87.50
2022-08-04T06:53:37.124Z,83.60
2022-08-04T06:56:06.523Z,82.50
2022-08-04T06:58:36.489Z,83.80
2022-08-04T07:01:06.313Z,81.50
2022-08-04T07:03:37.560Z,85.20
2022-08-04T07:06:08.439Z,83.50
2022-08-04T07:08:43.867Z,84.70
2022-08-04T07:11:13.874Z,82.60
2022-08-04T07:13:45.493Z,81.20
2022-08-04T07:16:16.289Z,79.20
2022-08-04T07:18:46.904Z,78.40
2022-08-04T07:21:22.398Z,76.30
2022-08-04T07:23:51.924Z,79.20
2022-08-04T07:26:20.629Z,79.70
2022-08-04T07:28:49.503Z,77.50
2022-08-04T07:31:34.047Z,77.00
2022-08-04T07:34:17.757Z,76.80
2022-08-04T07:36:52.864Z,72.50
2022-08-04T07:39:28.307Z,74.50
2022-08-04T07:42:01.473Z,74.70
2022-08-04T07:44:32.303Z,73.50
2022-08-04T07:47:02.331Z,73.20
2022-08-04T07:49:55.446Z,73.30
2022-08-04T07:52:22.948Z,74.40
2022-08-04T07:54:52.596Z,74.30
2022-08-04T07:57:41.045Z,76.60
2022-08-04T08:00:14.320Z,75.10
2022-08-04T08:02:44.167Z,75.20
2022-08-04T08:05:16.890Z,71.30
2022-08-04T08:07:50.891Z,74.20
2022-08-04T08:10:23.819Z,74.50
2022-08-04T08:12:53.454Z,70.40
2022-08-04T08:15:23.104Z,68.70
2022-08-04T08:17:58.368Z,73.70
2022-08-04T08:20:34.263Z,68.10
2022-08-04T08:23:03.906Z,69.80
2022-08-04T08:25:34.103Z,68.60
2022-08-04T08:28:05.240Z,68.60
2022-08-04T08:30:34.988Z,67.10
2022-08-04T08:33:08.561Z,64.70
2022-08-04T08:35:53.400Z,67.40
2022-08-04T08:38:38.707Z,67.80
2022-08-04T08:41:51.889Z,68.40
2022-08-04T08:44:58.225Z,67.80
2022-08-04T08:48:04.871Z,65.70
2022-08-04T08:53:59.381Z,61.40
2022-08-04T08:56:36.988Z,61.50
2022-08-04T08:59:31.126Z,62.50
2022-08-04T09:02:29.843Z,60.20
2022-08-04T09:05:17.220Z,59.00
2022-08-04T09:08:03.353Z,61.00
2022-08-04T09:10:42.660Z,61.10
2022-08-04T09:13:24.587Z,60.20
2022-08-04T09:16:00.871Z,58.90
2022-08-04T09:18:39.019Z,59.60
2022-08-04T09:21:14.804Z,61.40
2022-08-04T09:23:53.131Z,58.10
2022-08-04T09:26:28.855Z,58.30
2022-08-04T09:29:06.602Z,58.60
2022-08-04T09:31:52.952Z,58.60
2022-08-04T09:35:03.089Z,59.20
2022-08-04T09:37:45.627Z,59.90
2022-08-04T09:40:29.047Z,56.90
2022-08-04T09:43:14.791Z,58.10
2022-08-04T09:45:50.564Z,56.20
2022-08-04T09:48:29.776Z,56.10
2022-08-04T09:51:00.856Z,57.20
2022-08-04T09:53:43.687Z,58.30
2022-08-04T09:56:23.540Z,56.30
2022-08-04T09:59:03.184Z,55.80
2022-08-04T10:01:33.488Z,58.30
2022-08-04T10:04:04.507Z,57.80
2022-08-04T10:06:43.988Z,57.20
2022-08-04T10:09:32.062Z,58.30
2022-08-04T10:12:14.103Z,57.50
2022-08-04T10:14:54.407Z,55.90
2022-08-04T10:17:51.938Z,56.40
2022-08-04T10:20:44.814Z,56.50
2022-08-04T10:23:24.930Z,57.50
2022-08-04T10:26:08.471Z,58.70
2022-08-04T10:28:44.503Z,57.80
2022-08-04T10:31:20.551Z,58.40
2022-08-04T10:33:54.534Z,58.50
2022-08-04T10:36:28.167Z,58.70
2022-08-04T10:39:02.837Z,57.00
2022-08-04T10:41:39.513Z,58.30
2022-08-04T10:44:23.755Z,57.40
2022-08-04T10:46:58.807Z,57.40
2022-08-04T10:49:36.163Z,59.00
2022-08-04T10:52:09.988Z,56.40
2022-08-04T10:54:48.897Z,57.20
2022-08-04T10:57:24.916Z,57.10
2022-08-04T11:00:03.604Z,55.80
2022-08-04T11:02:42.897Z,58.40
2022-08-04T11:05:21.924Z,56.00
2022-08-04T11:07:53.745Z,56.20
2022-08-04T11:10:25.511Z,55.80
2022-08-04T11:13:00.629Z,57.10
2022-08-04T11:15:36.305Z,56.50
2022-08-04T11:18:16.484Z,56.40
2022-08-04T11:20:53.003Z,56.90
2022-08-04T11:23:28.161Z,56.00
2022-08-04T11:26:02.126Z,59.60
2022-08-04T11:28:44.018Z,56.60
2022-08-04T11:31:15.672Z,56.90
2022-08-04T11:33:53.667Z,56.70
2022-08-04T11:36:29.764Z,57.10
2022-08-04T11:39:02.972Z,57.30
2022-08-04T11:41:42.205Z,55.80
2022-08-04T11:44:18.287Z,56.00
2022-08-04T11:46:52.413Z,55.20
2022-08-04T11:49:31.282Z,55.20
2022-08-04T11:52:21.891Z,55.20
2022-08-04T11:54:54.712Z,56.60
2022-08-04T11:57:35.398Z,54.50
2022-08-04T12:00:10.714Z,55.20
2022-08-04T12:03:13.899Z,55.00
2022-08-04T12:05:56.383Z,56.60
2022-08-04T12:08:41.588Z,57.20
2022-08-04T12:11:28.516Z,55.40
2022-08-04T12:14:05.429Z,55.00
2022-08-04T12:16:42.939Z,55.00
2022-08-04T12:19:18.811Z,56.50
2022-08-04T12:21:55.808Z,54.30
2022-08-04T12:24:32.290Z,55.00
2022-08-04T12:27:09.642Z,53.40
2022-08-04T12:29:40.679Z,53.40
2022-08-04T12:32:21.167Z,54.50
2022-08-04T12:34:58.555Z,54.90
2022-08-04T12:37:49.369Z,53.00
2022-08-04T12:40:29.896Z,54.70
2022-08-04T12:43:10.200Z,54.30
2022-08-04T12:45:48.849Z,53.40
2022-08-04T12:48:21.577Z,54.40
2022-08-04T12:50:53.892Z,55.30
2022-08-04T12:53:32.188Z,54.90
2022-08-04T12:56:02.836Z,55.20
2022-08-04T12:58:42.118Z,55.30
2022-08-04T13:02:06.750Z,56.00
2022-08-04T13:04:13.073Z,55.40
2022-08-04T13:06:43.282Z,54.60
2022-08-04T13:09:19.362Z,54.80
2022-08-04T13:11:52.303Z,55.30
2022-08-04T13:14:27.798Z,55.30
2022-08-04T13:17:01.302Z,57.00
2022-08-04T13:19:31.779Z,56.30
2022-08-04T13:22:10.937Z,56.80
2022-08-04T13:24:56.545Z,56.10
2022-08-04T13:27:43.323Z,55.30
2022-08-04T13:30:23.136Z,56.60
2022-08-04T13:32:57.016Z,56.70
2022-08-04T13:35:55.347Z,55.60
2022-08-04T13:38:18.956Z,57.00
2022-08-04T13:40:50.422Z,56.20
2022-08-04T13:44:16.152Z,55.90
2022-08-04T13:46:27.186Z,55.90
2022-08-04T13:51:57.290Z,55.00
2022-08-04T13:54:30.348Z,55.00
2022-08-04T13:57:03.403Z,54.90
2022-08-04T13:59:38.009Z,54.40
2022-08-04T14:02:10.037Z,54.10
2022-08-04T14:04:42.965Z,53.70
2022-08-04T14:07:16.186Z,54.50
2022-08-04T14:10:03.751Z,54.60
2022-08-04T14:12:38.811Z,54.60
2022-08-04T14:16:02.196Z,54.70
2022-08-04T14:18:25.955Z,56.00
2022-08-04T14:21:05.510Z,55.90
2022-08-04T14:23:51.675Z,55.60
2022-08-04T14:26:31.507Z,55.50
2022-08-04T14:29:27.149Z,55.70
2022-08-04T14:32:10.597Z,55.00
2022-08-04T14:34:45.180Z,54.80
2022-08-04T14:37:19.409Z,54.80
2022-08-04T14:40:18.507Z,55.30
2022-08-04T14:42:42.608Z,56.40
2022-08-04T14:45:13.283Z,56.10
2022-08-04T14:47:52.362Z,55.00
2022-08-04T14:50:33.309Z,54.30
2022-08-04T14:53:05.139Z,54.60
2022-08-04T14:55:33.956Z,55.90
2022-08-04T14:58:35.156Z,55.60
2022-08-04T15:00:56.391Z,54.70
2022-08-04T15:03:25.751Z,55.40
2022-08-04T15:06:02.689Z,54.60
2022-08-04T15:08:35.520Z,56.60
2022-08-04T15:11:04.065Z,56.60
2022-08-04T15:13:33.554Z,55.90
2022-08-04T15:16:08.081Z,56.00
2022-08-04T15:18:38.955Z,55.80
2022-08-04T15:21:09.271Z,56.60
2022-08-04T15:23:40.164Z,56.80
2022-08-04T15:26:16.915Z,55.80
2022-08-04T15:28:51.626Z,55.70
2022-08-04T15:32:07.132Z,56.00
2022-08-04T15:34:13.736Z,56.50
2022-08-04T15:36:57.204Z,57.30
2022-08-04T15:39:36.948Z,57.30
2022-08-04T15:42:20.844Z,57.70
2022-08-04T15:45:20.199Z,58.00
2022-08-04T15:48:34.996Z,56.40
2022-08-04T15:51:07.006Z,56.80
2022-08-04T15:54:08.729Z,56.30
2022-08-04T15:56:48.282Z,56.20
2022-08-04T16:00:02.112Z,55.10
2022-08-04T16:02:43.919Z,56.90
2022-08-04T16:05:41.650Z,57.40
2022-08-04T16:08:19.535Z,56.70
2022-08-04T16:10:50.749Z,56.10
2022-08-04T16:13:21.742Z,54.20
2022-08-04T16:15:53.136Z,55.40
2022-08-04T16:18:40.265Z,54.80
2022-08-04T16:21:23.282Z,53.90
2022-08-04T16:24:05.876Z,54.40
2022-08-04T16:26:55.031Z,54.50
2022-08-04T16:29:36.143Z,56.20
2022-08-04T16:32:23.740Z,56.20
2022-08-04T16:34:59.884Z,57.30
2022-08-04T16:37:35.610Z,57.10
2022-08-04T16:40:33.347Z,57.90
2022-08-04T16:43:05.312Z,58.80
2022-08-04T16:45:51.375Z,57.50
2022-08-04T16:48:21.113Z,58.90
2022-08-04T16:51:05.848Z,58.70
2022-08-04T16:53:53.316Z,58.80
2022-08-04T16:56:29.887Z,58.80
2022-08-04T16:58:58.721Z,59.50
2022-08-04T17:01:33.217Z,59.00
2022-08-04T17:04:06.457Z,58.40
2022-08-04T17:06:38.035Z,59.00
2022-08-04T17:09:12.252Z,59.50
2022-08-04T17:11:41.644Z,59.90
2022-08-04T17:14:10.507Z,60.00
2022-08-04T17:16:41.766Z,60.70
2022-08-04T17:19:19.884Z,60.90
2022-08-04T17:21:57.601Z,60.20
2022-08-04T17:24:30.739Z,59.30
2022-08-04T17:26:59.915Z,59.20
2022-08-04T17:29:44.654Z,60.60
2022-08-04T17:32:19.780Z,61.60
2022-08-04T17:34:49.745Z,62.00
2022-08-04T17:37:40.137Z,60.60
2022-08-04T17:40:14.131Z,59.80
2022-08-04T17:42:45.157Z,60.00
2022-08-04T17:45:51.356Z,60.10
2022-08-04T17:48:09.995Z,61.40
2022-08-04T17:50:43.764Z,62.30
2022-08-04T17:53:13.438Z,63.10
2022-08-04T17:55:46.967Z,63.50
2022-08-04T17:58:20.954Z,64.50
2022-08-04T18:01:23.756Z,65.50
2022-08-04T18:03:51.858Z,66.40
2022-08-04T18:06:25.586Z,67.10
2022-08-04T18:08:59.512Z,67.60
2022-08-04T18:11:55.150Z,68.10
2022-08-04T18:14:28.761Z,69.00
2022-08-04T18:16:57.905Z,69.60
2022-08-04T18:19:26.511Z,69.80
2022-08-04T18:22:01.141Z,70.00
2022-08-04T18:24:35.934Z,70.50
2022-08-04T18:27:23.798Z,70.70
2022-08-04T18:33:10.614Z,71.40
2022-08-04T18:36:33.029Z,71.60
2022-08-04T18:38:23.636Z,71.70
2022-08-04T18:40:54.697Z,71.60
2022-08-04T18:43:28.665Z,72.20
2022-08-04T18:46:14.585Z,72.20
2022-08-04T18:48:45.251Z,72.70
2022-08-04T18:51:23.838Z,72.90
2022-08-04T18:53:55.124Z,72.80
2022-08-04T18:56:32.862Z,72.90
2022-08-04T18:59:05.053Z,73.30
2022-08-04T19:02:16.925Z,73.40
2022-08-04T19:04:33.864Z,74.00
2022-08-04T19:07:28.699Z,74.70
2022-08-04T19:09:57.637Z,74.90
2022-08-04T19:12:29.138Z,74.70
2022-08-04T19:15:10.522Z,75.20
2022-08-04T19:17:52.557Z,74.80
2022-08-04T19:20:25.993Z,74.80
2022-08-04T19:24:11.696Z,75.00
2022-08-04T19:26:01.136Z,74.90
2022-08-04T19:28:35.469Z,76.20
2022-08-04T19:31:07.977Z,76.50
2022-08-04T19:33:59.450Z,77.30
2022-08-04T19:36:29.088Z,77.70
2022-08-04T19:39:01.292Z,78.40
2022-08-04T19:41:31.961Z,79.30
2022-08-04T19:44:00.750Z,80.20
2022-08-04T19:46:30.684Z,80.60
2022-08-04T19:49:00.816Z,80.70
2022-08-04T19:51:32.631Z,80.80
2022-08-04T19:54:04.041Z,81.90
2022-08-04T19:56:40.645Z,81.80
2022-08-04T19:59:10.937Z,82.10
2022-08-04T20:01:45.217Z,82.40
2022-08-04T20:04:14.733Z,82.40
2022-08-04T20:06:43.606Z,82.50
2022-08-04T20:09:25.705Z,82.60
2022-08-04T20:11:56.832Z,83.30
2022-08-04T20:14:32.869Z,83.90
2022-08-04T20:17:09.991Z,84.10
2022-08-04T20:19:39.781Z,84.40
2022-08-04T20:22:50.609Z,85.00
2022-08-04T20:25:11.106Z,85.70
2022-08-04T20:27:59.374Z,86.20
2022-08-04T20:30:29.540Z,86.30
2022-08-04T20:33:00.787Z,86.60
2022-08-04T20:35:29.881Z,87.30
2022-08-04T20:38:01.330Z,87.90
2022-08-04T20:40:30.474Z,88.30
2022-08-04T20:42:59.601Z,89.00
2022-08-04T20:45:56.545Z,89.10
2022-08-04T20:48:18.255Z,89.60
2022-08-04T20:50:47.099Z,90.00
2022-08-04T20:53:17.238Z,90.30
2022-08-04T20:55:54.770Z,90.50
2022-08-04T20:58:27.641Z,91.00
2022-08-04T21:00:57.456Z,91.00
2022-08-04T21:03:49.686Z,91.10
2022-08-04T21:06:16.645Z,91.40
2022-08-04T21:08:57.271Z,91.70
2022-08-04T21:11:32.839Z,91.90
2022-08-04T21:14:01.882Z,91.80
2022-08-04T21:19:22.499Z,92.20
2022-08-04T21:21:53.839Z,92.30
2022-08-04T21:24:26.142Z,92.50
2022-08-04T21:26:57.362Z,92.60
2022-08-04T21:29:35.285Z,92.80
2022-08-04T21:32:05.874Z,93.20
2022-08-04T21:34:39.943Z,93.30
2022-08-04T21:37:11.207Z,93.60
2022-08-04T21:39:50.770Z,93.60
2022-08-04T21:42:30.621Z,94.00
2022-08-04T21:45:00.093Z,94.00
2022-08-04T21:47:46.167Z,94.20
2022-08-04T21:50:20.411Z,94.40
2022-08-04T21:52:49.974Z,95.10
2022-08-04T21:55:19.654Z,95.60
2022-08-04T21:57:49.531Z,95.90
2022-08-04T22:00:21.304Z,96.30
2022-08-04T22:02:53.363Z,96.70
2022-08-04T22:05:25.286Z,97.10
2022-08-04T22:07:54.208Z,97.50
2022-08-04T22:10:32.668Z,97.90
2022-08-04T22:13:02.977Z,98.00
2022-08-04T22:16:03.507Z,98.70
2022-08-04T22:18:27.918Z,98.70
2022-08-04T22:20:58.598Z,99.10
2022-08-04T22:23:29.118Z,98.90
2022-08-04T22:25:58.828Z,99.40
2022-08-04T22:28:28.425Z,99.40
2022-08-04T22:30:58.111Z,99.90
2022-08-04T22:33:53.786Z,99.90
2022-08-04T22:36:18.769Z,99.90
2022-08-04T22:38:54.267Z,99.90
2022-08-04T22:41:34.362Z,99.90
2022-08-04T22:44:16.505Z,99.90
2022-08-04T22:46:45.312Z,99.90
2022-08-04T22:49:14.351Z,99.90
2022-08-04T22:51:48.292Z,99.90
2022-08-04T22:54:19.311Z,99.90
2022-08-04T22:56:47.928Z,99.90
2022-08-04T22:59:16.533Z,99.90
2022-08-04T23:01:59.102Z,99.90
2022-08-04T23:04:31.757Z,99.90
2022-08-04T23:07:05.156Z,99.90
2022-08-04T23:09:50.942Z,99.90
2022-08-04T23:12:26.112Z,99.90
2022-08-04T23:14:56.515Z,99.90
2022-08-04T23:17:27.366Z,99.90
2022-08-04T23:19:59.200Z,99.90
2022-08-04T23:22:41.187Z,99.90
2022-08-04T23:25:16.076Z,99.90
2022-08-04T23:27:51.091Z,99.90
2022-08-04T23:30:29.518Z,99.90
2022-08-04T23:32:59.471Z,99.90
2022-08-04T23:35:28.679Z,99.90
2022-08-04T23:38:00.108Z,99.90
2022-08-04T23:40:50.577Z,99.90
2022-08-04T23:43:19.900Z,99.90
2022-08-04T23:46:07.031Z,99.90
2022-08-04T23:48:37.018Z,99.90
2022-08-04T23:51:14.915Z,99.90
2022-08-04T23:54:01.630Z,99.90
2022-08-04T23:56:34.582Z,99.90
2022-08-04T23:59:04.669Z,99.90
